createdAt,value
2023-03-06T00:00:54.234Z,8.20
2023-03-06T00:03:22.383Z,5.90
2023-03-06T00:05:49.175Z,7.00
2023-03-06T00:08:15.981Z,8.33
2023-03-06T00:10:42.663Z,6.00
2023-03-06T00:13:12.694Z,6.73
2023-03-06T00:15:39.446Z,5.40
2023-03-06T00:18:06.674Z,9.67
2023-03-06T00:20:34.683Z,9.40
2023-03-06T00:23:01.385Z,5.90
2023-03-06T00:25:27.971Z,7.60
2023-03-06T00:27:54.540Z,7.03
2023-03-06T00:30:23.176Z,6.87
2023-03-06T00:32:50.025Z,5.53
2023-03-06T00:35:17.088Z,6.30
2023-03-06T00:37:49.734Z,7.13
2023-03-06T00:40:18.728Z,8.27
2023-03-06T00:42:47.340Z,6.23
2023-03-06T00:45:14.380Z,6.23
2023-03-06T00:47:41.709Z,6.43
2023-03-06T00:50:09.660Z,6.70
2023-03-06T00:52:36.551Z,6.67
2023-03-06T00:55:03.358Z,7.17
2023-03-06T00:57:29.960Z,7.30
2023-03-06T00:59:56.625Z,6.57
2023-03-06T01:02:23.295Z,9.00
2023-03-06T01:04:49.987Z,7.87
2023-03-06T01:07:16.632Z,7.80
2023-03-06T01:09:43.331Z,7.40
2023-03-06T01:12:10.277Z,10.20
2023-03-06T01:14:37.008Z,7.87
2023-03-06T01:17:03.895Z,8.07
2023-03-06T01:19:30.759Z,7.53
2023-03-06T01:21:57.430Z,8.03
2023-03-06T01:24:25.858Z,8.87
2023-03-06T01:26:52.607Z,9.63
2023-03-06T01:29:19.317Z,9.10
2023-03-06T01:31:46.082Z,10.80
2023-03-06T01:34:12.692Z,12.33
2023-03-06T01:36:39.298Z,12.40
2023-03-06T01:39:06.052Z,10.87
2023-03-06T01:41:33.066Z,10.97
2023-03-06T01:43:59.937Z,13.40
2023-03-06T01:46:38.868Z,13.03
2023-03-06T01:49:24.123Z,13.90
2023-03-06T01:52:11.718Z,13.27
2023-03-06T01:54:42.469Z,15.37
2023-03-06T01:57:13.192Z,12.57
2023-03-06T01:59:40.930Z,12.87
2023-03-06T02:02:09.282Z,15.60
2023-03-06T02:04:36.877Z,17.40
2023-03-06T02:07:06.952Z,27.53
2023-03-06T02:09:34.852Z,27.50
2023-03-06T02:12:03.433Z,25.80
2023-03-06T02:14:30.304Z,18.97
2023-03-06T02:16:57.120Z,29.67
2023-03-06T02:19:46.128Z,31.80
2023-03-06T02:22:12.900Z,36.70
2023-03-06T02:24:47.934Z,21.33
2023-03-06T02:27:15.353Z,22.40
2023-03-06T02:29:42.118Z,32.60
2023-03-06T02:32:08.973Z,24.87
2023-03-06T02:34:38.699Z,26.87
2023-03-06T02:37:09.102Z,23.00
2023-03-06T02:39:40.570Z,29.97
2023-03-06T02:42:07.307Z,19.67
2023-03-06T02:44:34.856Z,18.90
2023-03-06T02:47:01.659Z,25.93
2023-03-06T02:49:28.410Z,18.67
2023-03-06T02:51:55.034Z,15.57
2023-03-06T02:54:24.815Z,13.97
2023-03-06T02:56:51.409Z,14.30
2023-03-06T02:59:18.057Z,13.00
2023-03-06T03:01:44.734Z,11.43
2023-03-06T03:04:11.353Z,11.23
2023-03-06T03:06:38.037Z,10.13
2023-03-06T03:09:04.640Z,10.63
2023-03-06T03:11:31.252Z,9.67
2023-03-06T03:13:57.889Z,8.97
2023-03-06T03:16:24.672Z,9.90
2023-03-06T03:18:51.401Z,9.67
2023-03-06T03:21:18.536Z,10.07
2023-03-06T03:23:45.303Z,11.93
2023-03-06T03:26:17.411Z,12.47
2023-03-06T03:28:44.391Z,14.03
2023-03-06T03:31:11.566Z,13.00
2023-03-06T03:33:38.975Z,15.53
2023-03-06T03:36:07.642Z,12.13
2023-03-06T03:38:34.761Z,17.03
2023-03-06T03:41:01.912Z,14.60
2023-03-06T03:43:28.549Z,15.80
2023-03-06T03:45:55.121Z,11.97
2023-03-06T03:48:21.936Z,14.40
2023-03-06T03:50:48.759Z,15.17
2023-03-06T03:53:15.390Z,15.47
2023-03-06T03:55:42.027Z,14.03
2023-03-06T03:58:08.715Z,14.00
2023-03-06T04:00:35.374Z,14.03
2023-03-06T04:03:01.997Z,13.77
2023-03-06T04:05:28.601Z,15.67
2023-03-06T04:07:55.222Z,15.50
2023-03-06T04:10:21.851Z,16.07
2023-03-06T04:12:48.428Z,16.60
2023-03-06T04:15:15.015Z,16.63
2023-03-06T04:17:41.614Z,16.57
2023-03-06T04:20:08.953Z,13.33
2023-03-06T04:22:35.611Z,15.90
2023-03-06T04:25:02.246Z,16.93
2023-03-06T04:27:28.886Z,15.87
2023-03-06T04:29:56.530Z,16.50
2023-03-06T04:32:24.066Z,16.57
2023-03-06T04:34:50.943Z,15.53
2023-03-06T04:37:22.605Z,22.77
2023-03-06T04:39:49.302Z,16.63
2023-03-06T04:42:16.153Z,15.97
2023-03-06T04:44:42.796Z,15.67
2023-03-06T04:47:10.011Z,13.93
2023-03-06T04:49:36.763Z,15.50
2023-03-06T04:52:04.391Z,18.00
2023-03-06T04:54:31.113Z,14.70
2023-03-06T04:56:57.875Z,12.43
2023-03-06T04:59:24.677Z,18.03
2023-03-06T05:01:51.408Z,14.10
2023-03-06T05:04:18.072Z,18.50
2023-03-06T05:06:44.737Z,15.87
2023-03-06T05:09:11.426Z,19.00
2023-03-06T05:11:38.106Z,17.23
2023-03-06T05:14:04.892Z,18.70
2023-03-06T05:16:31.607Z,14.80
2023-03-06T05:18:58.236Z,16.50
2023-03-06T05:21:24.840Z,14.70
2023-03-06T05:23:51.394Z,15.40
2023-03-06T05:26:17.982Z,13.97
2023-03-06T05:28:44.929Z,14.77
2023-03-06T05:31:11.606Z,17.67
2023-03-06T05:33:38.249Z,18.53
2023-03-06T05:36:05.290Z,17.30
2023-03-06T05:38:32.497Z,16.47
2023-03-06T05:40:59.099Z,20.33
2023-03-06T05:43:25.821Z,17.73
2023-03-06T05:46:00.418Z,18.50
2023-03-06T05:48:27.102Z,18.80
2023-03-06T05:50:57.726Z,17.33
2023-03-06T05:53:24.475Z,15.43
2023-03-06T05:56:04.596Z,23.40
2023-03-06T05:58:32.810Z,28.10
2023-03-06T06:00:59.802Z,21.53
2023-03-06T06:03:26.819Z,18.23
2023-03-06T06:05:53.616Z,19.70
2023-03-06T06:08:20.812Z,17.00
2023-03-06T06:10:47.538Z,16.73
2023-03-06T06:13:14.287Z,21.40
2023-03-06T06:15:40.987Z,18.00
2023-03-06T06:18:08.007Z,16.33
2023-03-06T06:20:35.593Z,17.73
2023-03-06T06:23:10.350Z,17.17
2023-03-06T06:25:37.706Z,17.33
2023-03-06T06:28:05.867Z,19.07
2023-03-06T06:30:33.733Z,18.63
2023-03-06T06:33:00.704Z,17.40
2023-03-06T06:35:27.484Z,18.80
2023-03-06T06:37:54.107Z,20.83
2023-03-06T06:40:22.980Z,23.83
2023-03-06T06:42:49.630Z,22.23
2023-03-06T06:45:16.765Z,25.33
2023-03-06T06:47:44.030Z,24.17
2023-03-06T06:50:13.008Z,23.77
2023-03-06T06:52:39.759Z,26.03
2023-03-06T06:55:06.792Z,22.27
2023-03-06T06:57:33.484Z,21.20
2023-03-06T07:00:00.180Z,20.87
2023-03-06T07:02:27.066Z,23.33
2023-03-06T07:05:05.937Z,22.63
2023-03-06T07:07:37.536Z,18.73
2023-03-06T07:10:06.845Z,22.87
2023-03-06T07:12:35.262Z,26.27
2023-03-06T07:15:02.284Z,25.70
2023-03-06T07:17:29.278Z,23.33
2023-03-06T07:19:55.989Z,20.77
2023-03-06T07:22:23.386Z,19.57
2023-03-06T07:24:50.146Z,20.93
2023-03-06T07:27:16.857Z,21.97
2023-03-06T07:29:43.917Z,20.97
2023-03-06T07:32:16.670Z,23.20
2023-03-06T07:34:44.889Z,22.07
2023-03-06T07:37:11.830Z,20.17
2023-03-06T07:39:38.532Z,18.30
2023-03-06T07:42:07.671Z,19.17
2023-03-06T07:44:38.031Z,17.90
2023-03-06T07:47:05.579Z,19.23
2023-03-06T07:49:32.568Z,21.10
2023-03-06T07:52:04.392Z,16.63
2023-03-06T07:54:32.797Z,18.07
2023-03-06T07:56:59.435Z,19.57
2023-03-06T07:59:26.147Z,20.80
2023-03-06T08:01:55.114Z,17.43
2023-03-06T08:04:21.925Z,18.53
2023-03-06T08:06:50.110Z,20.37
2023-03-06T08:09:16.796Z,19.23
2023-03-06T08:11:45.432Z,18.63
2023-03-06T08:14:12.172Z,19.30
2023-03-06T08:16:38.891Z,19.37
2023-03-06T08:19:05.646Z,21.30
2023-03-06T08:21:32.408Z,18.13
2023-03-06T08:23:59.485Z,18.13
2023-03-06T08:26:29.183Z,20.87
2023-03-06T08:28:57.563Z,21.57
2023-03-06T08:31:34.501Z,22.33
2023-03-06T08:34:06.894Z,22.60
2023-03-06T08:36:33.754Z,23.87
2023-03-06T08:39:00.752Z,24.67
2023-03-06T08:41:27.517Z,26.33
2023-03-06T08:43:54.245Z,25.13
2023-03-06T08:46:22.549Z,23.27
2023-03-06T08:48:49.312Z,24.53
2023-03-06T08:51:16.867Z,29.77
2023-03-06T08:53:44.548Z,23.43
2023-03-06T08:56:19.297Z,23.70
2023-03-06T08:58:46.427Z,29.10
2023-03-06T09:01:17.777Z,28.17
2023-03-06T09:03:44.744Z,25.67
2023-03-06T09:06:11.746Z,26.33
2023-03-06T09:08:38.637Z,25.97
2023-03-06T09:11:05.331Z,27.47
2023-03-06T09:13:31.989Z,27.07
2023-03-06T09:15:58.615Z,26.33
2023-03-06T09:18:25.287Z,26.80
2023-03-06T09:20:51.965Z,21.90
2023-03-06T09:23:18.633Z,22.60
2023-03-06T09:25:46.200Z,23.37
2023-03-06T09:28:12.913Z,20.17
2023-03-06T09:30:41.161Z,24.07
2023-03-06T09:33:08.315Z,24.53
2023-03-06T09:35:35.633Z,28.07
2023-03-06T09:38:02.380Z,26.97
2023-03-06T09:41:02.980Z,26.27
2023-03-06T09:43:38.511Z,26.97
2023-03-06T09:46:29.870Z,26.70
2023-03-06T09:49:10.485Z,22.93
2023-03-06T09:51:47.320Z,24.17
2023-03-06T09:54:15.538Z,22.27
2023-03-06T09:56:49.940Z,21.30
2023-03-06T09:59:20.928Z,34.33
2023-03-06T10:02:28.372Z,23.87
2023-03-06T10:05:01.233Z,19.20
2023-03-06T10:07:38.928Z,20.03
2023-03-06T10:10:07.348Z,19.53
2023-03-06T10:12:40.430Z,21.53
2023-03-06T10:15:14.723Z,18.67
2023-03-06T10:17:42.710Z,17.43
2023-03-06T10:20:24.693Z,19.80
2023-03-06T10:23:13.316Z,17.03
2023-03-06T10:25:52.530Z,17.37
2023-03-06T10:28:30.589Z,16.10
2023-03-06T10:31:13.808Z,18.67
2023-03-06T10:33:43.422Z,18.67
2023-03-06T10:36:16.620Z,18.00
2023-03-06T10:38:44.600Z,15.03
2023-03-06T10:41:11.146Z,16.00
2023-03-06T10:43:45.142Z,15.97
2023-03-06T10:46:13.750Z,14.93
2023-03-06T10:48:42.452Z,14.73
2023-03-06T10:51:19.032Z,17.03
2023-03-06T10:53:53.734Z,15.17
2023-03-06T10:56:41.436Z,15.57
2023-03-06T10:59:29.479Z,13.57
2023-03-06T11:01:58.142Z,13.40
2023-03-06T11:04:30.436Z,17.90
2023-03-06T11:07:07.783Z,12.80
2023-03-06T11:09:34.793Z,12.40
2023-03-06T11:12:32.387Z,10.43
2023-03-06T11:15:14.413Z,11.57
2023-03-06T11:18:28.531Z,12.77
2023-03-06T11:20:55.895Z,12.37
2023-03-06T11:23:22.500Z,11.03
2023-03-06T11:26:01.439Z,14.70
2023-03-06T11:28:34.122Z,17.27
2023-03-06T11:31:03.726Z,13.17
2023-03-06T11:34:02.593Z,11.70
2023-03-06T11:36:55.594Z,13.17
2023-03-06T11:39:37.384Z,10.37
2023-03-06T11:42:13.119Z,9.47
2023-03-06T11:45:18.156Z,11.57
2023-03-06T11:47:50.368Z,7.77
2023-03-06T11:50:28.604Z,9.43
2023-03-06T11:53:00.512Z,11.63
2023-03-06T11:55:51.022Z,10.60
2023-03-06T11:58:38.391Z,12.60
2023-03-06T12:01:17.052Z,11.90
2023-03-06T12:03:50.356Z,12.53
2023-03-06T12:06:44.901Z,9.03
2023-03-06T12:09:24.537Z,10.93
2023-03-06T12:12:14.803Z,6.77
2023-03-06T12:14:50.482Z,5.67
2023-03-06T12:17:29.888Z,8.00
2023-03-06T12:20:32.085Z,8.73
2023-03-06T12:23:17.035Z,6.13
2023-03-06T12:25:49.166Z,7.30
2023-03-06T12:28:45.990Z,5.27
2023-03-06T12:31:13.016Z,8.47
2023-03-06T12:34:10.223Z,5.97
2023-03-06T12:36:48.993Z,5.60
2023-03-06T12:39:43.742Z,9.90
2023-03-06T12:42:39.317Z,7.83
2023-03-06T12:45:30.001Z,5.93
2023-03-06T12:47:57.926Z,4.67
2023-03-06T12:50:38.284Z,4.27
2023-03-06T12:53:07.599Z,5.00
2023-03-06T12:55:42.850Z,3.70
2023-03-06T12:58:30.683Z,4.13
2023-03-06T13:01:15.708Z,5.70
2023-03-06T13:04:19.720Z,5.47
2023-03-06T13:07:14.434Z,3.50
2023-03-06T13:10:02.408Z,5.23
2023-03-06T13:12:50.200Z,6.53
2023-03-06T13:15:38.340Z,4.83
2023-03-06T13:18:23.362Z,4.17
2023-03-06T13:20:57.602Z,5.53
2023-03-06T13:23:43.087Z,6.13
2023-03-06T13:26:12.628Z,7.20
2023-03-06T13:28:45.172Z,5.60
2023-03-06T13:31:27.682Z,6.03
2023-03-06T13:34:03.167Z,6.37
2023-03-06T13:36:39.904Z,4.77
2023-03-06T13:39:10.119Z,4.20
2023-03-06T13:41:41.756Z,4.40
2023-03-06T13:44:28.536Z,3.80
2023-03-06T13:47:39.757Z,5.80
2023-03-06T13:50:57.094Z,6.47
2023-03-06T13:53:23.694Z,6.93
2023-03-06T13:55:56.571Z,4.30
2023-03-06T13:58:41.819Z,3.37
2023-03-06T14:01:33.498Z,3.73
2023-03-06T14:04:18.957Z,3.57
2023-03-06T14:07:01.700Z,5.70
2023-03-06T14:09:32.392Z,7.17
2023-03-06T14:12:07.514Z,11.97
2023-03-06T14:14:39.656Z,10.87
2023-03-06T14:17:21.921Z,11.77
2023-03-06T14:19:49.163Z,10.13
2023-03-06T14:22:23.182Z,8.67
2023-03-06T14:25:05.833Z,9.47
2023-03-06T14:27:47.880Z,9.90
2023-03-06T14:30:17.546Z,13.83
2023-03-06T14:32:44.494Z,10.43
2023-03-06T14:35:21.405Z,12.83
2023-03-06T14:37:52.521Z,14.30
2023-03-06T14:40:28.099Z,13.97
2023-03-06T14:43:33.845Z,11.77
2023-03-06T14:46:08.014Z,14.43
2023-03-06T14:48:39.434Z,12.07
2023-03-06T14:51:07.790Z,12.83
2023-03-06T14:53:34.988Z,11.83
2023-03-06T14:56:05.935Z,12.97
2023-03-06T14:58:43.947Z,14.57
2023-03-06T15:01:13.272Z,15.10
2023-03-06T15:03:47.135Z,9.73
2023-03-06T15:06:45.665Z,12.70
2023-03-06T15:09:16.694Z,12.93
2023-03-06T15:12:04.555Z,12.17
2023-03-06T15:14:39.545Z,11.27
2023-03-06T15:17:18.473Z,13.43
2023-03-06T15:19:56.125Z,11.83
2023-03-06T15:22:31.996Z,9.80
2023-03-06T15:25:18.741Z,13.23
2023-03-06T15:27:49.902Z,14.13
2023-03-06T15:30:26.624Z,9.57
2023-03-06T15:33:19.893Z,10.70
2023-03-06T15:36:03.965Z,11.00
2023-03-06T15:38:39.874Z,11.10
2023-03-06T15:41:20.468Z,12.40
2023-03-06T15:43:49.942Z,15.77
2023-03-06T15:46:16.680Z,12.57
2023-03-06T15:48:54.189Z,15.37
2023-03-06T15:51:20.871Z,13.73
2023-03-06T15:53:48.100Z,15.43
2023-03-06T15:56:28.199Z,13.60
2023-03-06T15:58:56.085Z,17.73
2023-03-06T16:01:23.523Z,16.43
2023-03-06T16:03:55.481Z,17.00
2023-03-06T16:06:27.001Z,18.23
2023-03-06T16:08:56.502Z,20.80
2023-03-06T16:11:41.973Z,17.23
2023-03-06T16:14:18.878Z,13.80
2023-03-06T16:16:45.896Z,16.93
2023-03-06T16:19:29.015Z,16.67
2023-03-06T16:21:58.855Z,21.77
2023-03-06T16:24:26.712Z,18.33
2023-03-06T16:26:55.790Z,21.63
2023-03-06T16:29:24.917Z,26.33
2023-03-06T16:31:58.975Z,21.13
2023-03-06T16:34:26.025Z,16.13
2023-03-06T16:36:52.994Z,15.97
2023-03-06T16:39:21.725Z,18.03
2023-03-06T16:41:50.456Z,14.63
2023-03-06T16:44:17.127Z,16.87
2023-03-06T16:46:46.061Z,16.37
2023-03-06T16:49:20.981Z,17.70
2023-03-06T16:51:48.253Z,16.67
2023-03-06T16:54:18.368Z,16.73
2023-03-06T16:56:45.367Z,18.53
2023-03-06T16:59:12.462Z,16.07
2023-03-06T17:01:41.165Z,17.17
2023-03-06T17:04:08.353Z,19.17
2023-03-06T17:06:35.078Z,16.63
2023-03-06T17:09:01.987Z,17.77
2023-03-06T17:11:38.660Z,19.23
2023-03-06T17:14:06.967Z,17.53
2023-03-06T17:16:40.563Z,19.17
2023-03-06T17:19:07.846Z,17.43
2023-03-06T17:21:35.527Z,17.70
2023-03-06T17:24:03.887Z,17.77
2023-03-06T17:26:30.650Z,18.87
2023-03-06T17:28:57.464Z,17.00
2023-03-06T17:31:26.772Z,18.00
2023-03-06T17:33:57.223Z,17.07
2023-03-06T17:36:23.986Z,18.43
2023-03-06T17:38:50.845Z,22.63
2023-03-06T17:41:17.520Z,20.67
2023-03-06T17:43:44.233Z,20.60
2023-03-06T17:46:13.016Z,20.63
2023-03-06T17:48:39.959Z,20.87
2023-03-06T17:51:07.813Z,19.50
2023-03-06T17:53:34.780Z,22.60
2023-03-06T17:56:07.101Z,19.83
2023-03-06T17:58:34.355Z,22.93
2023-03-06T18:01:01.936Z,20.67
2023-03-06T18:03:28.774Z,21.43
2023-03-06T18:06:02.696Z,20.27
2023-03-06T18:08:29.995Z,20.93
2023-03-06T18:11:01.111Z,21.33
2023-03-06T18:13:27.800Z,22.97
2023-03-06T18:15:54.744Z,19.63
2023-03-06T18:18:21.327Z,22.83
2023-03-06T18:20:50.912Z,23.70
2023-03-06T18:23:17.851Z,22.07
2023-03-06T18:25:44.881Z,19.43
2023-03-06T18:28:11.595Z,21.37
2023-03-06T18:30:41.408Z,20.50
2023-03-06T18:33:09.374Z,20.57
2023-03-06T18:35:46.771Z,20.77
2023-03-06T18:38:13.727Z,24.87
2023-03-06T18:40:41.843Z,19.70
2023-03-06T18:43:08.522Z,21.60
2023-03-06T18:45:35.219Z,21.50
2023-03-06T18:48:05.035Z,19.63
2023-03-06T18:50:31.813Z,23.60
2023-03-06T18:52:58.390Z,24.60
2023-03-06T18:55:25.119Z,22.27
2023-03-06T18:57:51.751Z,22.77
2023-03-06T19:00:19.067Z,23.00
2023-03-06T19:02:45.689Z,22.87
2023-03-06T19:05:12.627Z,24.93
2023-03-06T19:07:39.327Z,20.30
2023-03-06T19:10:06.625Z,18.57
2023-03-06T19:12:33.757Z,16.53
2023-03-06T19:15:00.375Z,18.37
2023-03-06T19:17:27.008Z,20.77
2023-03-06T19:19:55.124Z,17.10
2023-03-06T19:22:22.247Z,18.93
2023-03-06T19:25:02.719Z,20.40
2023-03-06T19:27:30.686Z,20.60
2023-03-06T19:29:57.389Z,19.97
2023-03-06T19:32:25.206Z,19.33
2023-03-06T19:34:52.120Z,21.10
2023-03-06T19:37:18.964Z,19.60
2023-03-06T19:39:45.627Z,18.57
2023-03-06T19:42:13.892Z,20.13
2023-03-06T19:44:40.813Z,16.40
2023-03-06T19:47:07.523Z,16.50
2023-03-06T19:49:34.863Z,16.50
2023-03-06T19:52:01.540Z,17.17
2023-03-06T19:54:28.234Z,18.30
2023-03-06T19:56:54.912Z,15.87
2023-03-06T19:59:21.616Z,18.80
2023-03-06T20:01:48.310Z,18.70
2023-03-06T20:04:16.597Z,17.63
2023-03-06T20:06:45.537Z,17.60
2023-03-06T20:09:12.690Z,16.57
2023-03-06T20:11:39.442Z,17.30
2023-03-06T20:14:07.772Z,16.30
2023-03-06T20:16:35.212Z,17.90
2023-03-06T20:19:08.710Z,15.57
2023-03-06T20:21:37.703Z,16.27
2023-03-06T20:24:09.127Z,18.33
2023-03-06T20:26:37.082Z,17.40
2023-03-06T20:29:03.896Z,17.00
2023-03-06T20:31:30.765Z,19.47
2023-03-06T20:33:59.287Z,19.33
2023-03-06T20:36:30.946Z,19.57
2023-03-06T20:39:00.219Z,19.37
2023-03-06T20:41:28.230Z,19.67
2023-03-06T20:43:54.985Z,18.77
2023-03-06T20:46:22.810Z,23.50
2023-03-06T20:48:50.987Z,23.73
2023-03-06T20:51:21.694Z,20.90
2023-03-06T20:53:49.886Z,19.80
2023-03-06T20:56:18.723Z,20.63
2023-03-06T20:58:45.435Z,17.40
2023-03-06T21:01:23.513Z,21.30
2023-03-06T21:03:50.949Z,20.93
2023-03-06T21:06:18.242Z,19.93
2023-03-06T21:08:45.306Z,19.57
2023-03-06T21:11:12.029Z,22.23
2023-03-06T21:13:38.655Z,21.83
2023-03-06T21:16:11.057Z,20.83
2023-03-06T21:18:37.983Z,19.17
2023-03-06T21:21:09.211Z,22.53
2023-03-06T21:23:35.921Z,23.17
2023-03-06T21:26:02.970Z,21.07
2023-03-06T21:28:29.731Z,22.27
2023-03-06T21:30:56.809Z,24.23
2023-03-06T21:33:23.536Z,25.60
2023-03-06T21:35:50.295Z,23.27
2023-03-06T21:38:17.093Z,20.80
2023-03-06T21:40:45.567Z,24.03
2023-03-06T21:43:12.963Z,22.03
2023-03-06T21:45:44.165Z,23.47
2023-03-06T21:48:10.784Z,23.03
2023-03-06T21:50:37.396Z,23.67
2023-03-06T21:53:04.166Z,25.40
2023-03-06T21:55:30.937Z,24.47
2023-03-06T21:57:57.790Z,25.07
2023-03-06T22:00:25.863Z,23.13
2023-03-06T22:02:53.109Z,24.10
2023-03-06T22:05:19.868Z,24.40
2023-03-06T22:07:46.571Z,22.63
2023-03-06T22:10:14.418Z,24.27
2023-03-06T22:12:41.521Z,23.17
2023-03-06T22:15:09.588Z,23.77
2023-03-06T22:17:36.345Z,28.93
2023-03-06T22:20:03.060Z,26.57
2023-03-06T22:22:30.920Z,29.00
2023-03-06T22:24:57.838Z,23.27
2023-03-06T22:27:24.722Z,26.80
2023-03-06T22:29:52.714Z,29.87
2023-03-06T22:32:19.558Z,30.50
2023-03-06T22:34:46.254Z,27.33
2023-03-06T22:37:12.903Z,24.67
2023-03-06T22:39:39.514Z,26.47
2023-03-06T22:42:06.226Z,25.37
2023-03-06T22:44:32.852Z,25.73
2023-03-06T22:46:59.527Z,24.27
2023-03-06T22:49:26.150Z,27.90
2023-03-06T22:51:52.736Z,24.13
2023-03-06T22:54:19.437Z,24.67
2023-03-06T22:56:46.060Z,24.93
2023-03-06T22:59:12.662Z,22.67
2023-03-06T23:01:39.449Z,22.97
2023-03-06T23:04:11.371Z,25.90
2023-03-06T23:06:40.571Z,21.03
2023-03-06T23:09:12.972Z,23.03
2023-03-06T23:11:39.600Z,21.80
2023-03-06T23:14:06.476Z,20.03
2023-03-06T23:16:33.442Z,19.87
2023-03-06T23:19:00.340Z,19.37
2023-03-06T23:21:27.061Z,18.73
2023-03-06T23:23:54.531Z,19.43
2023-03-06T23:26:24.052Z,14.97
2023-03-06T23:28:51.136Z,21.03
2023-03-06T23:31:20.969Z,15.37
2023-03-06T23:33:48.129Z,15.67
2023-03-06T23:36:16.371Z,15.20
2023-03-06T23:38:43.661Z,14.07
2023-03-06T23:41:15.588Z,14.47
2023-03-06T23:43:42.771Z,15.53
2023-03-06T23:46:09.515Z,11.87
2023-03-06T23:48:38.081Z,13.33
2023-03-06T23:51:06.965Z,11.80
2023-03-06T23:53:33.558Z,11.97
2023-03-06T23:56:00.248Z,11.80
2023-03-06T23:58:27.227Z,10.03
